sensor_id;sensor_type;location;lat;lon;timestamp;temperature;humidity
26503;DHT22;14177;51.520;6.764;2023-08-20T00:01:33;18.80;99.90
26503;DHT22;14177;51.520;6.764;2023-08-20T00:04:00;18.70;99.90
26503;DHT22;14177;51.520;6.764;2023-08-20T00:06:29;18.70;99.90
26503;DHT22;14177;51.520;6.764;2023-08-20T00:08:56;18.70;99.90
26503;DHT22;14177;51.520;6.764;2023-08-20T00:11:23;18.70;99.90
26503;DHT22;14177;51.520;6.764;2023-08-20T00:13:50;18.60;99.90
26503;DHT22;14177;51.520;6.764;2023-08-20T00:16:17;18.60;99.90
26503;DHT22;14177;51.520;6.764;2023-08-20T00:18:44;18.60;99.90
26503;DHT22;14177;51.520;6.764;2023-08-20T00:21:14;18.60;99.90
26503;DHT22;14177;51.520;6.764;2023-08-20T00:23:41;18.60;99.90
26503;DHT22;14177;51.520;6.764;2023-08-20T00:26:09;18.50;99.90
26503;DHT22;14177;51.520;6.764;2023-08-20T00:28:37;18.50;99.90
26503;DHT22;14177;51.520;6.764;2023-08-20T00:31:05;18.50;99.90
26503;DHT22;14177;51.520;6.764;2023-08-20T00:33:32;18.50;99.90
26503;DHT22;14177;51.520;6.764;2023-08-20T00:35:59;18.50;99.90
26503;DHT22;14177;51.520;6.764;2023-08-20T00:38:26;18.40;99.90
26503;DHT22;14177;51.520;6.764;2023-08-20T00:40:53;18.40;99.90
26503;DHT22;14177;51.520;6.764;2023-08-20T00:43:20;18.40;99.90
26503;DHT22;14177;51.520;6.764;2023-08-20T00:45:48;18.30;99.90
26503;DHT22;14177;51.520;6.764;2023-08-20T00:48:16;18.30;99.90
26503;DHT22;14177;51.520;6.764;2023-08-20T00:50:44;18.30;99.90
26503;DHT22;14177;51.520;6.764;2023-08-20T00:53:12;18.30;99.90
26503;DHT22;14177;51.520;6.764;2023-08-20T00:55:42;18.30;99.90
26503;DHT22;14177;51.520;6.764;2023-08-20T00:58:10;18.30;99.90
26503;DHT22;14177;51.520;6.764;2023-08-20T01:00:39;18.20;99.90
26503;DHT22;14177;51.520;6.764;2023-08-20T01:03:07;18.20;99.90
26503;DHT22;14177;51.520;6.764;2023-08-20T01:05:41;18.20;99.90
26503;DHT22;14177;51.520;6.764;2023-08-20T01:11:16;18.10;99.90
26503;DHT22;14177;51.520;6.764;2023-08-20T01:13:47;18.10;99.90
26503;DHT22;14177;51.520;6.764;2023-08-20T01:16:14;18.10;99.90
26503;DHT22;14177;51.520;6.764;2023-08-20T01:18:41;18.10;99.90
26503;DHT22;14177;51.520;6.764;2023-08-20T01:21:23;18.10;99.90
26503;DHT22;14177;51.520;6.764;2023-08-20T01:30:03;18.00;99.90
26503;DHT22;14177;51.520;6.764;2023-08-20T01:32:30;18.00;99.90
26503;DHT22;14177;51.520;6.764;2023-08-20T01:34:57;17.90;99.90
26503;DHT22;14177;51.520;6.764;2023-08-20T01:37:24;17.90;99.90
26503;DHT22;14177;51.520;6.764;2023-08-20T01:39:51;17.90;99.90
26503;DHT22;14177;51.520;6.764;2023-08-20T01:42:18;17.90;99.90
26503;DHT22;14177;51.520;6.764;2023-08-20T01:44:45;17.90;99.90
26503;DHT22;14177;51.520;6.764;2023-08-20T01:47:12;17.90;99.90
26503;DHT22;14177;51.520;6.764;2023-08-20T01:49:39;17.90;99.90
26503;DHT22;14177;51.520;6.764;2023-08-20T01:52:06;17.90;99.90
26503;DHT22;14177;51.520;6.764;2023-08-20T01:54:33;17.90;99.90
26503;DHT22;14177;51.520;6.764;2023-08-20T01:57:00;17.80;99.90
26503;DHT22;14177;51.520;6.764;2023-08-20T01:59:27;17.80;99.90
26503;DHT22;14177;51.520;6.764;2023-08-20T02:01:54;17.80;99.90
26503;DHT22;14177;51.520;6.764;2023-08-20T02:04:21;17.80;99.90
26503;DHT22;14177;51.520;6.764;2023-08-20T02:06:48;17.80;99.90
26503;DHT22;14177;51.520;6.764;2023-08-20T02:09:15;17.90;99.90
26503;DHT22;14177;51.520;6.764;2023-08-20T02:11:43;17.90;99.90
26503;DHT22;14177;51.520;6.764;2023-08-20T02:14:10;17.90;99.90
26503;DHT22;14177;51.520;6.764;2023-08-20T02:16:37;18.00;99.90
26503;DHT22;14177;51.520;6.764;2023-08-20T02:19:04;18.00;99.90
26503;DHT22;14177;51.520;6.764;2023-08-20T02:21:33;18.00;99.90
26503;DHT22;14177;51.520;6.764;2023-08-20T02:24:00;18.10;99.90
26503;DHT22;14177;51.520;6.764;2023-08-20T02:26:27;18.10;99.90
26503;DHT22;14177;51.520;6.764;2023-08-20T02:28:54;18.20;99.90
26503;DHT22;14177;51.520;6.764;2023-08-20T02:31:21;18.30;99.90
26503;DHT22;14177;51.520;6.764;2023-08-20T02:33:48;18.20;99.90
26503;DHT22;14177;51.520;6.764;2023-08-20T02:36:15;18.30;99.90
26503;DHT22;14177;51.520;6.764;2023-08-20T02:38:44;18.30;99.90
26503;DHT22;14177;51.520;6.764;2023-08-20T02:41:11;18.30;99.90
26503;DHT22;14177;51.520;6.764;2023-08-20T02:43:39;18.30;99.90
26503;DHT22;14177;51.520;6.764;2023-08-20T02:46:06;18.30;99.90
26503;DHT22;14177;51.520;6.764;2023-08-20T02:48:33;18.30;99.90
26503;DHT22;14177;51.520;6.764;2023-08-20T02:51:01;18.30;99.90
26503;DHT22;14177;51.520;6.764;2023-08-20T02:53:28;18.30;99.90
26503;DHT22;14177;51.520;6.764;2023-08-20T02:55:55;18.30;99.90
26503;DHT22;14177;51.520;6.764;2023-08-20T02:58:23;18.30;99.90
26503;DHT22;14177;51.520;6.764;2023-08-20T03:00:50;18.30;99.90
26503;DHT22;14177;51.520;6.764;2023-08-20T03:03:17;18.20;99.90
26503;DHT22;14177;51.520;6.764;2023-08-20T03:05:44;18.20;99.90
26503;DHT22;14177;51.520;6.764;2023-08-20T03:08:11;18.20;99.90
26503;DHT22;14177;51.520;6.764;2023-08-20T03:10:38;18.20;99.90
26503;DHT22;14177;51.520;6.764;2023-08-20T03:13:05;18.20;99.90
26503;DHT22;14177;51.520;6.764;2023-08-20T03:15:32;18.20;99.90
26503;DHT22;14177;51.520;6.764;2023-08-20T03:17:59;18.20;99.90
26503;DHT22;14177;51.520;6.764;2023-08-20T03:20:26;18.20;99.90
26503;DHT22;14177;51.520;6.764;2023-08-20T03:22:55;18.20;99.90
26503;DHT22;14177;51.520;6.764;2023-08-20T03:25:22;18.20;99.90
26503;DHT22;14177;51.520;6.764;2023-08-20T03:27:51;18.10;99.90
26503;DHT22;14177;51.520;6.764;2023-08-20T03:30:19;18.10;99.90
26503;DHT22;14177;51.520;6.764;2023-08-20T03:32:46;18.10;99.90
26503;DHT22;14177;51.520;6.764;2023-08-20T03:35:13;18.10;99.90
26503;DHT22;14177;51.520;6.764;2023-08-20T03:37:41;18.10;99.90
26503;DHT22;14177;51.520;6.764;2023-08-20T03:40:10;18.10;99.90
26503;DHT22;14177;51.520;6.764;2023-08-20T03:42:37;18.10;99.90
26503;DHT22;14177;51.520;6.764;2023-08-20T03:45:04;18.00;99.90
26503;DHT22;14177;51.520;6.764;2023-08-20T03:47:32;18.00;99.90
26503;DHT22;14177;51.520;6.764;2023-08-20T03:50:00;18.00;99.90
26503;DHT22;14177;51.520;6.764;2023-08-20T03:52:27;18.00;99.90
26503;DHT22;14177;51.520;6.764;2023-08-20T03:54:54;18.00;99.90
26503;DHT22;14177;51.520;6.764;2023-08-20T03:57:21;17.90;99.90
26503;DHT22;14177;51.520;6.764;2023-08-20T03:59:50;17.90;99.90
26503;DHT22;14177;51.520;6.764;2023-08-20T04:02:16;17.90;99.90
26503;DHT22;14177;51.520;6.764;2023-08-20T04:04:43;17.90;99.90
26503;DHT22;14177;51.520;6.764;2023-08-20T04:07:10;17.90;99.90
26503;DHT22;14177;51.520;6.764;2023-08-20T04:09:37;17.80;99.90
26503;DHT22;14177;51.520;6.764;2023-08-20T04:12:06;17.80;99.90
26503;DHT22;14177;51.520;6.764;2023-08-20T04:14:33;17.80;99.90
26503;DHT22;14177;51.520;6.764;2023-08-20T04:17:00;17.80;99.90
26503;DHT22;14177;51.520;6.764;2023-08-20T04:19:27;17.80;99.90
26503;DHT22;14177;51.520;6.764;2023-08-20T04:21:53;17.80;99.90
26503;DHT22;14177;51.520;6.764;2023-08-20T04:24:20;17.80;99.90
26503;DHT22;14177;51.520;6.764;2023-08-20T04:26:48;17.80;99.90
26503;DHT22;14177;51.520;6.764;2023-08-20T04:29:21;17.80;99.90
26503;DHT22;14177;51.520;6.764;2023-08-20T04:31:48;17.80;99.90
26503;DHT22;14177;51.520;6.764;2023-08-20T04:34:15;17.80;99.90
26503;DHT22;14177;51.520;6.764;2023-08-20T04:36:46;17.80;99.90
26503;DHT22;14177;51.520;6.764;2023-08-20T04:39:13;17.70;99.90
26503;DHT22;14177;51.520;6.764;2023-08-20T04:41:45;17.70;99.90
26503;DHT22;14177;51.520;6.764;2023-08-20T04:44:15;17.70;99.90
26503;DHT22;14177;51.520;6.764;2023-08-20T04:46:43;17.60;99.90
26503;DHT22;14177;51.520;6.764;2023-08-20T04:49:11;17.60;99.90
26503;DHT22;14177;51.520;6.764;2023-08-20T04:51:38;17.60;99.90
26503;DHT22;14177;51.520;6.764;2023-08-20T04:54:06;17.60;99.90
26503;DHT22;14177;51.520;6.764;2023-08-20T04:56:33;17.60;99.90
26503;DHT22;14177;51.520;6.764;2023-08-20T04:59:00;17.60;99.90
26503;DHT22;14177;51.520;6.764;2023-08-20T05:01:45;17.60;99.90
26503;DHT22;14177;51.520;6.764;2023-08-20T05:04:12;17.60;99.90
26503;DHT22;14177;51.520;6.764;2023-08-20T05:06:39;17.60;99.90
26503;DHT22;14177;51.520;6.764;2023-08-20T05:09:07;17.60;99.90
26503;DHT22;14177;51.520;6.764;2023-08-20T05:11:35;17.70;99.90
26503;DHT22;14177;51.520;6.764;2023-08-20T05:14:02;17.70;99.90
26503;DHT22;14177;51.520;6.764;2023-08-20T05:16:29;17.70;99.90
26503;DHT22;14177;51.520;6.764;2023-08-20T05:18:56;17.80;99.90
26503;DHT22;14177;51.520;6.764;2023-08-20T05:21:23;17.80;99.90
26503;DHT22;14177;51.520;6.764;2023-08-20T05:23:52;17.80;99.90
26503;DHT22;14177;51.520;6.764;2023-08-20T05:26:21;17.80;99.90
26503;DHT22;14177;51.520;6.764;2023-08-20T05:28:48;17.90;99.90
26503;DHT22;14177;51.520;6.764;2023-08-20T05:31:15;17.90;99.90
26503;DHT22;14177;51.520;6.764;2023-08-20T05:33:42;18.00;99.90
26503;DHT22;14177;51.520;6.764;2023-08-20T05:36:09;18.00;99.90
26503;DHT22;14177;51.520;6.764;2023-08-20T05:38:36;18.10;99.90
26503;DHT22;14177;51.520;6.764;2023-08-20T05:41:04;18.10;99.90
26503;DHT22;14177;51.520;6.764;2023-08-20T05:43:30;18.20;99.90
26503;DHT22;14177;51.520;6.764;2023-08-20T05:45:58;18.20;99.90
26503;DHT22;14177;51.520;6.764;2023-08-20T05:48:26;18.30;99.90
26503;DHT22;14177;51.520;6.764;2023-08-20T05:50:53;18.40;99.90
26503;DHT22;14177;51.520;6.764;2023-08-20T05:53:20;18.40;99.90
26503;DHT22;14177;51.520;6.764;2023-08-20T05:55:49;18.50;99.90
26503;DHT22;14177;51.520;6.764;2023-08-20T05:58:16;18.50;99.90
26503;DHT22;14177;51.520;6.764;2023-08-20T06:00:43;18.60;99.90
26503;DHT22;14177;51.520;6.764;2023-08-20T06:03:11;18.70;99.90
26503;DHT22;14177;51.520;6.764;2023-08-20T06:05:38;18.80;99.90
26503;DHT22;14177;51.520;6.764;2023-08-20T06:08:05;18.90;99.90
26503;DHT22;14177;51.520;6.764;2023-08-20T06:10:32;19.00;99.90
26503;DHT22;14177;51.520;6.764;2023-08-20T06:12:59;19.10;99.90
26503;DHT22;14177;51.520;6.764;2023-08-20T06:15:26;19.20;99.90
26503;DHT22;14177;51.520;6.764;2023-08-20T06:17:53;19.20;99.90
26503;DHT22;14177;51.520;6.764;2023-08-20T06:20:20;19.40;99.90
26503;DHT22;14177;51.520;6.764;2023-08-20T06:22:47;19.40;99.90
26503;DHT22;14177;51.520;6.764;2023-08-20T06:25:14;19.50;99.90
26503;DHT22;14177;51.520;6.764;2023-08-20T06:27:42;19.60;99.90
26503;DHT22;14177;51.520;6.764;2023-08-20T06:30:09;19.70;99.90
26503;DHT22;14177;51.520;6.764;2023-08-20T06:32:37;19.80;99.90
26503;DHT22;14177;51.520;6.764;2023-08-20T06:35:04;19.90;99.90
26503;DHT22;14177;51.520;6.764;2023-08-20T06:37:32;20.00;99.90
26503;DHT22;14177;51.520;6.764;2023-08-20T06:40:00;20.20;99.90
26503;DHT22;14177;51.520;6.764;2023-08-20T06:42:27;20.30;99.90
26503;DHT22;14177;51.520;6.764;2023-08-20T06:44:54;20.40;99.90
26503;DHT22;14177;51.520;6.764;2023-08-20T06:47:21;20.50;99.90
26503;DHT22;14177;51.520;6.764;2023-08-20T06:49:49;20.70;99.90
26503;DHT22;14177;51.520;6.764;2023-08-20T06:52:17;20.80;99.90
26503;DHT22;14177;51.520;6.764;2023-08-20T06:54:44;20.90;99.90
26503;DHT22;14177;51.520;6.764;2023-08-20T06:57:11;21.10;99.90
26503;DHT22;14177;51.520;6.764;2023-08-20T06:59:38;21.20;99.90
26503;DHT22;14177;51.520;6.764;2023-08-20T07:02:05;21.30;99.90
26503;DHT22;14177;51.520;6.764;2023-08-20T07:04:32;21.40;99.90
26503;DHT22;14177;51.520;6.764;2023-08-20T07:07:00;21.40;99.90
26503;DHT22;14177;51.520;6.764;2023-08-20T07:09:27;21.60;99.90
26503;DHT22;14177;51.520;6.764;2023-08-20T07:11:54;21.70;99.90
26503;DHT22;14177;51.520;6.764;2023-08-20T07:14:21;21.80;99.90
26503;DHT22;14177;51.520;6.764;2023-08-20T07:16:48;22.00;99.90
26503;DHT22;14177;51.520;6.764;2023-08-20T07:19:15;22.20;99.90
26503;DHT22;14177;51.520;6.764;2023-08-20T07:21:42;22.30;99.90
26503;DHT22;14177;51.520;6.764;2023-08-20T07:24:09;22.50;99.90
26503;DHT22;14177;51.520;6.764;2023-08-20T07:26:36;22.60;99.90
26503;DHT22;14177;51.520;6.764;2023-08-20T07:29:03;22.60;99.90
26503;DHT22;14177;51.520;6.764;2023-08-20T07:31:32;22.70;99.90
26503;DHT22;14177;51.520;6.764;2023-08-20T07:34:01;22.90;99.90
26503;DHT22;14177;51.520;6.764;2023-08-20T07:36:32;23.20;99.90
26503;DHT22;14177;51.520;6.764;2023-08-20T07:38:59;23.30;99.90
26503;DHT22;14177;51.520;6.764;2023-08-20T07:41:28;23.60;99.90
26503;DHT22;14177;51.520;6.764;2023-08-20T07:43:55;23.60;99.90
26503;DHT22;14177;51.520;6.764;2023-08-20T07:46:22;23.70;99.90
26503;DHT22;14177;51.520;6.764;2023-08-20T07:48:49;24.00;99.90
26503;DHT22;14177;51.520;6.764;2023-08-20T07:51:16;24.10;99.90
26503;DHT22;14177;51.520;6.764;2023-08-20T07:53:43;24.40;99.90
26503;DHT22;14177;51.520;6.764;2023-08-20T07:56:10;24.50;99.90
26503;DHT22;14177;51.520;6.764;2023-08-20T07:58:37;24.60;99.90
26503;DHT22;14177;51.520;6.764;2023-08-20T08:01:04;24.90;99.90
26503;DHT22;14177;51.520;6.764;2023-08-20T08:03:31;25.00;99.90
26503;DHT22;14177;51.520;6.764;2023-08-20T08:05:58;25.10;99.90
26503;DHT22;14177;51.520;6.764;2023-08-20T08:08:25;25.30;99.90
26503;DHT22;14177;51.520;6.764;2023-08-20T08:10:52;25.50;99.90
26503;DHT22;14177;51.520;6.764;2023-08-20T08:13:21;25.60;99.90
26503;DHT22;14177;51.520;6.764;2023-08-20T08:15:50;25.80;99.90
26503;DHT22;14177;51.520;6.764;2023-08-20T08:18:18;25.80;99.90
26503;DHT22;14177;51.520;6.764;2023-08-20T08:20:47;25.90;99.90
26503;DHT22;14177;51.520;6.764;2023-08-20T08:23:14;25.90;99.90
26503;DHT22;14177;51.520;6.764;2023-08-20T08:25:41;25.90;99.90
26503;DHT22;14177;51.520;6.764;2023-08-20T08:28:08;25.90;99.90
26503;DHT22;14177;51.520;6.764;2023-08-20T08:30:36;25.50;99.90
26503;DHT22;14177;51.520;6.764;2023-08-20T08:33:04;25.50;99.90
26503;DHT22;14177;51.520;6.764;2023-08-20T08:35:31;25.30;99.90
26503;DHT22;14177;51.520;6.764;2023-08-20T08:37:58;25.20;99.90
26503;DHT22;14177;51.520;6.764;2023-08-20T08:40:28;25.10;99.90
26503;DHT22;14177;51.520;6.764;2023-08-20T08:42:57;25.00;99.90
26503;DHT22;14177;51.520;6.764;2023-08-20T08:45:26;24.70;99.90
26503;DHT22;14177;51.520;6.764;2023-08-20T08:47:54;24.60;99.90
26503;DHT22;14177;51.520;6.764;2023-08-20T08:50:22;24.70;99.90
26503;DHT22;14177;51.520;6.764;2023-08-20T08:52:51;24.70;99.90
26503;DHT22;14177;51.520;6.764;2023-08-20T08:55:19;24.90;99.90
26503;DHT22;14177;51.520;6.764;2023-08-20T08:57:46;25.50;99.90
26503;DHT22;14177;51.520;6.764;2023-08-20T09:00:14;25.60;99.90
26503;DHT22;14177;51.520;6.764;2023-08-20T09:02:41;26.20;99.90
26503;DHT22;14177;51.520;6.764;2023-08-20T09:05:09;26.70;99.90
26503;DHT22;14177;51.520;6.764;2023-08-20T09:07:42;26.60;99.90
26503;DHT22;14177;51.520;6.764;2023-08-20T09:10:10;26.60;99.90
26503;DHT22;14177;51.520;6.764;2023-08-20T09:12:38;26.70;99.90
26503;DHT22;14177;51.520;6.764;2023-08-20T09:15:10;26.70;99.90
26503;DHT22;14177;51.520;6.764;2023-08-20T09:17:40;26.80;99.90
26503;DHT22;14177;51.520;6.764;2023-08-20T09:20:10;26.70;99.90
26503;DHT22;14177;51.520;6.764;2023-08-20T09:22:37;26.30;99.90
26503;DHT22;14177;51.520;6.764;2023-08-20T09:25:05;26.30;99.90
26503;DHT22;14177;51.520;6.764;2023-08-20T09:27:39;26.40;99.90
26503;DHT22;14177;51.520;6.764;2023-08-20T09:30:09;26.30;99.90
26503;DHT22;14177;51.520;6.764;2023-08-20T09:32:39;26.10;99.90
26503;DHT22;14177;51.520;6.764;2023-08-20T09:35:06;26.00;99.90
26503;DHT22;14177;51.520;6.764;2023-08-20T09:37:34;26.20;99.90
26503;DHT22;14177;51.520;6.764;2023-08-20T09:40:01;26.70;99.90
26503;DHT22;14177;51.520;6.764;2023-08-20T09:42:30;27.30;99.90
26503;DHT22;14177;51.520;6.764;2023-08-20T09:45:01;27.40;99.90
26503;DHT22;14177;51.520;6.764;2023-08-20T09:47:33;27.40;99.90
26503;DHT22;14177;51.520;6.764;2023-08-20T09:50:08;28.00;99.90
26503;DHT22;14177;51.520;6.764;2023-08-20T09:52:44;28.30;99.90
26503;DHT22;14177;51.520;6.764;2023-08-20T09:55:22;28.30;99.90
26503;DHT22;14177;51.520;6.764;2023-08-20T09:57:53;28.90;99.90
26503;DHT22;14177;51.520;6.764;2023-08-20T10:00:21;29.40;99.90
26503;DHT22;14177;51.520;6.764;2023-08-20T10:02:49;29.80;99.90
26503;DHT22;14177;51.520;6.764;2023-08-20T10:05:17;29.60;99.90
26503;DHT22;14177;51.520;6.764;2023-08-20T10:07:45;29.20;99.90
26503;DHT22;14177;51.520;6.764;2023-08-20T10:10:13;29.40;99.90
26503;DHT22;14177;51.520;6.764;2023-08-20T10:12:41;29.40;99.90
26503;DHT22;14177;51.520;6.764;2023-08-20T10:15:12;29.90;99.90
26503;DHT22;14177;51.520;6.764;2023-08-20T10:17:45;29.70;99.90
26503;DHT22;14177;51.520;6.764;2023-08-20T10:20:14;29.20;99.90
26503;DHT22;14177;51.520;6.764;2023-08-20T10:22:44;29.80;99.90
26503;DHT22;14177;51.520;6.764;2023-08-20T10:25:22;29.30;99.90
26503;DHT22;14177;51.520;6.764;2023-08-20T10:27:51;29.20;99.90
26503;DHT22;14177;51.520;6.764;2023-08-20T10:30:28;28.90;99.90
26503;DHT22;14177;51.520;6.764;2023-08-20T10:32:57;28.60;99.90
26503;DHT22;14177;51.520;6.764;2023-08-20T10:35:47;28.50;99.90
26503;DHT22;14177;51.520;6.764;2023-08-20T10:38:15;28.70;99.90
26503;DHT22;14177;51.520;6.764;2023-08-20T10:40:55;28.50;99.90
26503;DHT22;14177;51.520;6.764;2023-08-20T10:43:31;28.90;99.90
26503;DHT22;14177;51.520;6.764;2023-08-20T10:51:37;28.00;99.90
26503;DHT22;14177;51.520;6.764;2023-08-20T10:54:08;28.50;99.90
26503;DHT22;14177;51.520;6.764;2023-08-20T10:56:55;28.90;99.90
26503;DHT22;14177;51.520;6.764;2023-08-20T10:59:27;29.20;99.90
26503;DHT22;14177;51.520;6.764;2023-08-20T11:01:57;29.60;99.90
26503;DHT22;14177;51.520;6.764;2023-08-20T11:04:29;30.10;99.90
26503;DHT22;14177;51.520;6.764;2023-08-20T11:07:01;30.40;99.90
26503;DHT22;14177;51.520;6.764;2023-08-20T11:09:31;30.60;99.90
26503;DHT22;14177;51.520;6.764;2023-08-20T11:11:59;29.90;99.90
26503;DHT22;14177;51.520;6.764;2023-08-20T11:14:26;29.90;99.90
26503;DHT22;14177;51.520;6.764;2023-08-20T11:16:53;30.30;99.90
26503;DHT22;14177;51.520;6.764;2023-08-20T11:19:22;30.60;99.90
26503;DHT22;14177;51.520;6.764;2023-08-20T11:21:50;31.20;99.90
26503;DHT22;14177;51.520;6.764;2023-08-20T11:24:18;31.40;99.40
26503;DHT22;14177;51.520;6.764;2023-08-20T11:26:47;31.00;99.90
26503;DHT22;14177;51.520;6.764;2023-08-20T11:29:15;31.10;99.90
26503;DHT22;14177;51.520;6.764;2023-08-20T11:31:49;31.50;99.40
26503;DHT22;14177;51.520;6.764;2023-08-20T11:34:18;31.70;98.30
26503;DHT22;14177;51.520;6.764;2023-08-20T11:36:47;32.10;96.70
26503;DHT22;14177;51.520;6.764;2023-08-20T11:39:15;31.20;98.30
26503;DHT22;14177;51.520;6.764;2023-08-20T11:41:43;30.80;99.90
26503;DHT22;14177;51.520;6.764;2023-08-20T11:44:20;31.10;99.90
26503;DHT22;14177;51.520;6.764;2023-08-20T11:46:48;31.20;99.90
26503;DHT22;14177;51.520;6.764;2023-08-20T11:49:16;31.60;99.00
26503;DHT22;14177;51.520;6.764;2023-08-20T11:51:49;32.10;96.90
26503;DHT22;14177;51.520;6.764;2023-08-20T11:54:17;32.20;95.30
26503;DHT22;14177;51.520;6.764;2023-08-20T11:56:52;32.10;94.10
26503;DHT22;14177;51.520;6.764;2023-08-20T11:59:19;32.40;94.40
26503;DHT22;14177;51.520;6.764;2023-08-20T12:02:02;32.20;93.00
26503;DHT22;14177;51.520;6.764;2023-08-20T12:04:32;32.00;93.10
26503;DHT22;14177;51.520;6.764;2023-08-20T12:09:36;32.20;95.20
26503;DHT22;14177;51.520;6.764;2023-08-20T12:12:05;32.40;92.40
26503;DHT22;14177;51.520;6.764;2023-08-20T12:14:34;32.30;91.80
26503;DHT22;14177;51.520;6.764;2023-08-20T12:17:02;32.10;91.10
26503;DHT22;14177;51.520;6.764;2023-08-20T12:19:30;32.30;91.00
26503;DHT22;14177;51.520;6.764;2023-08-20T12:21:57;32.30;88.20
26503;DHT22;14177;51.520;6.764;2023-08-20T12:24:24;32.10;83.50
26503;DHT22;14177;51.520;6.764;2023-08-20T12:26:52;32.10;90.40
26503;DHT22;14177;51.520;6.764;2023-08-20T12:29:19;31.80;83.70
26503;DHT22;14177;51.520;6.764;2023-08-20T12:31:47;32.30;86.70
26503;DHT22;14177;51.520;6.764;2023-08-20T12:34:13;32.30;77.90
26503;DHT22;14177;51.520;6.764;2023-08-20T12:36:40;31.60;86.10
26503;DHT22;14177;51.520;6.764;2023-08-20T12:39:07;32.30;85.20
26503;DHT22;14177;51.520;6.764;2023-08-20T12:41:35;32.50;80.60
26503;DHT22;14177;51.520;6.764;2023-08-20T12:44:03;32.60;81.20
26503;DHT22;14177;51.520;6.764;2023-08-20T12:46:31;33.00;81.50
26503;DHT22;14177;51.520;6.764;2023-08-20T12:48:57;33.10;76.70
26503;DHT22;14177;51.520;6.764;2023-08-20T12:51:25;33.20;77.10
26503;DHT22;14177;51.520;6.764;2023-08-20T12:53:53;32.10;72.70
26503;DHT22;14177;51.520;6.764;2023-08-20T12:56:20;32.20;78.20
26503;DHT22;14177;51.520;6.764;2023-08-20T12:58:47;32.50;76.30
26503;DHT22;14177;51.520;6.764;2023-08-20T13:01:14;32.70;74.10
26503;DHT22;14177;51.520;6.764;2023-08-20T13:03:42;32.30;69.80
26503;DHT22;14177;51.520;6.764;2023-08-20T13:06:10;32.40;72.20
26503;DHT22;14177;51.520;6.764;2023-08-20T13:08:37;32.60;70.30
26503;DHT22;14177;51.520;6.764;2023-08-20T13:11:06;32.80;71.20
26503;DHT22;14177;51.520;6.764;2023-08-20T13:13:36;32.60;68.60
26503;DHT22;14177;51.520;6.764;2023-08-20T13:16:03;32.40;70.20
26503;DHT22;14177;51.520;6.764;2023-08-20T13:18:31;31.90;71.90
26503;DHT22;14177;51.520;6.764;2023-08-20T13:20:58;32.30;73.60
26503;DHT22;14177;51.520;6.764;2023-08-20T13:23:25;32.80;71.80
26503;DHT22;14177;51.520;6.764;2023-08-20T13:25:52;33.20;71.50
26503;DHT22;14177;51.520;6.764;2023-08-20T13:28:19;33.20;69.60
26503;DHT22;14177;51.520;6.764;2023-08-20T13:30:46;33.20;68.80
26503;DHT22;14177;51.520;6.764;2023-08-20T13:33:13;32.40;68.00
26503;DHT22;14177;51.520;6.764;2023-08-20T13:35:41;31.50;68.50
26503;DHT22;14177;51.520;6.764;2023-08-20T13:38:09;31.80;70.50
26503;DHT22;14177;51.520;6.764;2023-08-20T13:40:36;31.90;72.50
26503;DHT22;14177;51.520;6.764;2023-08-20T13:43:03;32.10;72.60
26503;DHT22;14177;51.520;6.764;2023-08-20T13:45:31;32.60;72.90
26503;DHT22;14177;51.520;6.764;2023-08-20T13:47:58;32.90;70.90
26503;DHT22;14177;51.520;6.764;2023-08-20T13:50:25;33.20;68.90
26503;DHT22;14177;51.520;6.764;2023-08-20T13:52:52;33.20;68.70
26503;DHT22;14177;51.520;6.764;2023-08-20T13:55:19;33.50;68.30
26503;DHT22;14177;51.520;6.764;2023-08-20T13:57:48;33.70;68.00
26503;DHT22;14177;51.520;6.764;2023-08-20T14:00:15;33.70;67.40
26503;DHT22;14177;51.520;6.764;2023-08-20T14:02:42;33.70;67.30
26503;DHT22;14177;51.520;6.764;2023-08-20T14:05:09;33.70;67.50
26503;DHT22;14177;51.520;6.764;2023-08-20T14:07:36;33.30;66.70
26503;DHT22;14177;51.520;6.764;2023-08-20T14:10:07;33.30;66.10
26503;DHT22;14177;51.520;6.764;2023-08-20T14:12:34;33.40;67.70
26503;DHT22;14177;51.520;6.764;2023-08-20T14:15:06;33.40;66.60
26503;DHT22;14177;51.520;6.764;2023-08-20T14:17:34;33.50;65.20
26503;DHT22;14177;51.520;6.764;2023-08-20T14:20:01;33.50;66.20
26503;DHT22;14177;51.520;6.764;2023-08-20T14:22:28;33.60;66.20
26503;DHT22;14177;51.520;6.764;2023-08-20T14:24:55;33.80;67.30
26503;DHT22;14177;51.520;6.764;2023-08-20T14:27:22;33.80;65.00
26503;DHT22;14177;51.520;6.764;2023-08-20T14:29:49;33.70;64.50
26503;DHT22;14177;51.520;6.764;2023-08-20T14:32:16;33.60;65.50
26503;DHT22;14177;51.520;6.764;2023-08-20T14:34:43;33.70;64.00
26503;DHT22;14177;51.520;6.764;2023-08-20T14:37:10;33.80;66.40
26503;DHT22;14177;51.520;6.764;2023-08-20T14:39:40;34.00;65.40
26503;DHT22;14177;51.520;6.764;2023-08-20T14:42:07;34.00;66.00
26503;DHT22;14177;51.520;6.764;2023-08-20T14:44:34;33.60;63.00
26503;DHT22;14177;51.520;6.764;2023-08-20T14:47:01;33.70;65.10
26503;DHT22;14177;51.520;6.764;2023-08-20T14:49:28;33.80;64.80
26503;DHT22;14177;51.520;6.764;2023-08-20T14:51:55;33.80;64.70
26503;DHT22;14177;51.520;6.764;2023-08-20T14:54:43;33.80;65.20
26503;DHT22;14177;51.520;6.764;2023-08-20T14:57:09;33.90;64.80
26503;DHT22;14177;51.520;6.764;2023-08-20T14:59:36;34.00;64.70
26503;DHT22;14177;51.520;6.764;2023-08-20T15:02:03;33.80;63.90
26503;DHT22;14177;51.520;6.764;2023-08-20T15:04:30;33.80;64.50
26503;DHT22;14177;51.520;6.764;2023-08-20T15:06:57;33.70;64.10
26503;DHT22;14177;51.520;6.764;2023-08-20T15:09:25;33.40;64.50
26503;DHT22;14177;51.520;6.764;2023-08-20T15:11:52;33.40;66.20
26503;DHT22;14177;51.520;6.764;2023-08-20T15:14:19;33.40;64.50
26503;DHT22;14177;51.520;6.764;2023-08-20T15:16:46;33.20;65.70
26503;DHT22;14177;51.520;6.764;2023-08-20T15:19:13;33.20;64.60
26503;DHT22;14177;51.520;6.764;2023-08-20T15:21:40;33.10;66.30
26503;DHT22;14177;51.520;6.764;2023-08-20T15:24:07;33.10;65.30
26503;DHT22;14177;51.520;6.764;2023-08-20T15:26:34;33.20;65.70
26503;DHT22;14177;51.520;6.764;2023-08-20T15:29:01;33.10;65.30
26503;DHT22;14177;51.520;6.764;2023-08-20T15:31:29;33.10;64.90
26503;DHT22;14177;51.520;6.764;2023-08-20T15:33:56;32.50;63.90
26503;DHT22;14177;51.520;6.764;2023-08-20T15:36:23;32.60;66.70
26503;DHT22;14177;51.520;6.764;2023-08-20T15:38:50;32.70;65.70
26503;DHT22;14177;51.520;6.764;2023-08-20T15:41:17;32.60;64.10
26503;DHT22;14177;51.520;6.764;2023-08-20T15:43:44;32.70;66.00
26503;DHT22;14177;51.520;6.764;2023-08-20T15:46:11;32.60;65.50
26503;DHT22;14177;51.520;6.764;2023-08-20T15:48:38;32.60;65.50
26503;DHT22;14177;51.520;6.764;2023-08-20T15:51:05;32.60;66.10
26503;DHT22;14177;51.520;6.764;2023-08-20T15:53:32;32.50;66.80